Time;durP1;ratioP1;P1;durP2;ratioP2;P2;SDS_P1;SDS_P2;PMS_P1;PMS_P2;Temp;Humidity;BMP_temperature;BMP_pressure;BME280_temperature;BME280_humidity;BME280_pressure;Samples;Min_cycle;Max_cycle;Signal;HPM_P1;HPM_P2
2023/08/04 00:01:56;;;;;;;8.82;2.90;;;;;;;;;;5085933;27;20136;-83
2023/08/04 00:04:22;;;;;;;7.63;1.77;;;;;;;;;;5102893;27;20150;-84
2023/08/04 00:06:48;;;;;;;5.57;2.10;;;;;;;;;;5097583;27;20437;-80
2023/08/04 00:09:16;;;;;;;10.80;2.58;;;;;;;;;;5102924;27;20136;-82
2023/08/04 00:11:42;;;;;;;6.28;2.20;;;;;;;;;;5099085;27;20051;-79
2023/08/04 00:14:09;;;;;;;5.88;2.00;;;;;;;;;;5102191;27;20495;-80
2023/08/04 00:16:35;;;;;;;12.35;2.10;;;;;;;;;;5085048;27;20142;-81
2023/08/04 00:19:01;;;;;;;6.00;1.77;;;;;;;;;;5101869;27;20480;-80
2023/08/04 00:21:28;;;;;;;10.30;2.10;;;;;;;;;;5101352;27;20070;-86
2023/08/04 00:23:58;;;;;;;9.30;2.15;;;15.10;99.90;;;;;;5085331;27;20092;-83
2023/08/04 00:26:24;;;;;;;4.90;1.60;;;;;;;;;;5084968;27;20051;-80
2023/08/04 00:28:50;;;;;;;7.63;1.63;;;;;;;;;;5101953;28;20537;-81
2023/08/04 00:31:16;;;;;;;5.82;1.80;;;;;;;;;;5080576;28;20055;-81
2023/08/04 00:33:43;;;;;;;6.85;1.58;;;;;;;;;;5098337;28;20098;-81
2023/08/04 00:36:09;;;;;;;7.47;1.92;;;;;;;;;;5097545;28;20048;-84
2023/08/04 00:38:35;;;;;;;9.05;2.30;;;;;;;;;;5090825;28;20052;-81
2023/08/04 00:41:01;;;;;;;6.75;1.95;;;;;;;;;;5081558;28;20130;-82
2023/08/04 00:43:28;;;;;;;8.20;1.52;;;;;;;;;;5081836;28;20054;-81
2023/08/04 00:45:54;;;;;;;7.50;2.03;;;;;;;;;;5098610;28;20048;-83
2023/08/04 00:48:20;;;;;;;7.57;1.90;;;;;;;;;;5098429;28;20077;-83
2023/08/04 00:50:46;;;;;;;6.57;2.13;;;;;;;;;;5098162;28;20047;-85
2023/08/04 00:53:13;;;;;;;6.53;2.10;;;;;;;;;;5101814;28;20054;-83
2023/08/04 00:55:41;;;;;;;6.35;1.80;;;;;;;;;;5102252;28;20052;-80
2023/08/04 00:58:07;;;;;;;9.07;2.60;;;;;;;;;;5101747;28;20048;-80
2023/08/04 01:00:34;;;;;;;7.70;1.83;;;;;;;;;;5083181;28;20341;-84
2023/08/04 01:03:00;;;;;;;6.53;1.98;;;;;;;;;;5096919;28;20047;-85
2023/08/04 01:05:44;;;;;;;7.95;1.92;;;15.00;99.90;;;;;;5084066;28;20093;-80
2023/08/04 01:08:21;;;;;;;6.38;1.80;;;14.90;99.90;;;;;;5096600;28;20040;-83
2023/08/04 01:10:56;;;;;;;4.88;1.58;;;14.90;99.90;;;;;;5084606;28;20555;-81
2023/08/04 01:13:24;;;;;;;6.57;1.48;;;;;;;;;;5101281;28;20054;-82
2023/08/04 01:15:50;;;;;;;4.00;1.60;;;14.60;99.90;;;;;;5101008;28;20405;-84
2023/08/04 01:18:21;;;;;;;11.52;2.08;;;14.50;99.90;;;;;;5101014;28;20047;-83
2023/08/04 01:20:47;;;;;;;3.72;1.40;;;;;;;;;;5101536;28;20051;-83
2023/08/04 01:23:14;;;;;;;6.53;1.75;;;;;;;;;;5088756;28;20283;-86
2023/08/04 01:25:40;;;;;;;7.50;1.67;;;;;;;;;;5116042;28;20086;-88
2023/08/04 01:28:11;;;;;;;4.72;1.65;;;14.40;99.90;;;;;;5116401;28;20059;-84
2023/08/04 01:30:37;;;;;;;5.47;2.78;;;;;;;;;;5119208;27;20050;-84
2023/08/04 01:33:03;;;;;;;5.38;2.00;;;;;;;;;;5104507;27;20062;-84
2023/08/04 01:35:30;;;;;;;10.38;1.70;;;14.40;99.90;;;;;;5121683;27;20541;-84
2023/08/04 01:37:56;;;;;;;6.30;1.88;;;;;;;;;;5119716;27;20119;-86
2023/08/04 01:40:22;;;;;;;7.93;2.47;;;;;;;;;;5100735;27;20366;-83
2023/08/04 01:42:48;;;;;;;5.40;1.85;;;;;;;;;;5114236;27;20452;-82
2023/08/04 01:45:14;;;;;;;8.52;2.55;;;;;;;;;;5093771;27;20058;-82
2023/08/04 01:47:41;;;;;;;7.10;2.05;;;;;;;;;;5108383;27;20073;-84
2023/08/04 01:50:08;;;;;;;5.63;2.05;;;14.40;99.90;;;;;;5107122;27;20049;-82
2023/08/04 01:52:34;;;;;;;8.60;2.03;;;;;;;;;;5105488;27;20587;-82
2023/08/04 01:55:00;;;;;;;11.38;2.85;;;;;;;;;;5105533;27;20534;-83
2023/08/04 01:57:26;;;;;;;12.93;2.85;;;;;;;;;;5104521;27;20061;-83
2023/08/04 01:59:53;;;;;;;6.70;1.63;;;;;;;;;;5089111;27;20047;-81
2023/08/04 02:02:19;;;;;;;8.30;2.08;;;;;;;;;;5103772;27;20301;-81
2023/08/04 02:04:45;;;;;;;6.07;2.40;;;;;;;;;;5099976;27;20073;-87
2023/08/04 02:07:11;;;;;;;7.07;2.03;;;;;;;;;;5100624;27;20440;-84
2023/08/04 02:09:37;;;;;;;8.55;2.15;;;;;;;;;;5104283;27;20131;-86
2023/08/04 02:12:03;;;;;;;4.82;1.60;;;;;;;;;;5101923;27;20111;-84
2023/08/04 02:14:29;;;;;;;8.77;1.77;;;;;;;;;;5104940;27;20055;-80
2023/08/04 02:16:56;;;;;;;6.80;1.30;;;;;;;;;;5086868;27;20475;-82
2023/08/04 02:19:22;;;;;;;11.88;2.00;;;;;;;;;;5097379;28;20051;-87
2023/08/04 02:21:48;;;;;;;5.53;1.50;;;;;;;;;;5105989;27;20094;-83
2023/08/04 02:24:15;;;;;;;3.88;1.55;;;;;;;;;;5104672;27;20200;-83
2023/08/04 02:26:44;;;;;;;8.13;1.70;;;;;;;;;;5107146;27;20240;-85
2023/08/04 02:29:10;;;;;;;11.35;1.50;;;;;;;;;;5106439;27;20371;-83
2023/08/04 02:31:36;;;;;;;11.40;1.30;;;;;;;;;;5105840;27;20105;-84
2023/08/04 02:34:02;;;;;;;3.65;1.48;;;;;;;;;;5094648;27;20046;-84
2023/08/04 02:36:28;;;;;;;7.65;1.17;;;;;;;;;;5114850;27;20047;-82
2023/08/04 02:38:54;;;;;;;3.95;1.00;;;;;;;;;;5102613;27;20482;-85
2023/08/04 02:41:20;;;;;;;4.10;1.83;;;;;;;;;;5118523;27;20050;-82
2023/08/04 02:43:47;;;;;;;6.25;1.50;;;;;;;;;;5096429;27;20253;-83
2023/08/04 02:46:13;;;;;;;4.93;1.35;;;;;;;;;;5108792;27;20053;-85
2023/08/04 02:48:39;;;;;;;5.88;2.25;;;;;;;;;;5100308;27;20059;-84
2023/08/04 02:51:10;;;;;;;5.30;1.20;;;;;;;;;;5105022;27;20397;-82
2023/08/04 02:53:36;;;;;;;6.20;1.13;;;;;;;;;;5104528;27;20479;-83
2023/08/04 02:56:12;;;;;;;7.93;1.38;;;;;;;;;;5087880;27;20397;-82
2023/08/04 02:58:39;;;;;;;3.88;0.80;;;;;;;;;;5087823;27;20111;-80
2023/08/04 03:01:05;;;;;;;5.07;1.00;;;;;;;;;;5100909;27;20058;-83
2023/08/04 03:03:32;;;;;;;6.75;1.02;;;;;;;;;;5104408;27;20050;-83
2023/08/04 03:05:59;;;;;;;4.97;1.05;;;;;;;;;;5103658;27;20470;-84
2023/08/04 03:08:25;;;;;;;7.22;1.23;;;;;;;;;;5085980;27;20078;-86
2023/08/04 03:10:51;;;;;;;6.38;1.30;;;;;;;;;;5102533;27;20047;-81
2023/08/04 03:13:17;;;;;;;3.63;1.40;;;;;;;;;;5102395;27;20046;-84
2023/08/04 03:15:44;;;;;;;3.95;1.13;;;;;;;;;;5100965;27;20386;-82
2023/08/04 03:18:10;;;;;;;4.68;1.00;;;;;;;;;;5101828;27;20547;-80
2023/08/04 03:20:40;;;;;;;5.32;0.90;;;;;;;;;;5099385;27;20051;-86
2023/08/04 03:23:07;;;;;;;4.55;1.60;;;;;;;;;;5102962;27;20438;-82
2023/08/04 03:25:33;;;;;;;5.20;1.00;;;;;;;;;;5102840;27;20046;-85
2023/08/04 03:28:00;;;;;;;5.03;0.88;;;;;;;;;;5104198;27;20043;-82
2023/08/04 03:30:27;;;;;;;3.40;1.25;;;;;;;;;;5085313;27;20046;-82
2023/08/04 03:32:53;;;;;;;4.55;1.05;;;;;;;;;;5100749;28;20055;-84
2023/08/04 03:35:19;;;;;;;7.07;1.25;;;;;;;;;;5102027;28;20043;-84
2023/08/04 03:37:45;;;;;;;6.25;0.95;;;;;;;;;;5103724;28;20255;-82
2023/08/04 03:40:13;;;;;;;11.02;1.95;;;;;;;;;;5103584;28;20110;-83
2023/08/04 03:42:40;;;;;;;6.20;1.17;;;;;;;;;;5103632;28;20055;-82
2023/08/04 03:45:06;;;;;;;7.10;1.08;;;;;;;;;;5104195;28;20055;-81
2023/08/04 03:47:34;;;;;;;6.72;1.05;;;;;;;;;;5103019;28;20144;-86
2023/08/04 03:50:01;;;;;;;5.47;1.83;;;;;;;;;;5101035;28;20500;-81
2023/08/04 03:52:27;;;;;;;4.55;0.88;;;;;;;;;;5100034;28;20547;-83
2023/08/04 03:54:53;;;;;;;7.88;1.98;;;;;;;;;;5099351;28;20048;-84
2023/08/04 03:57:19;;;;;;;10.50;1.25;;;;;;;;;;5093749;28;20560;-82
2023/08/04 03:59:45;;;;;;;7.80;2.28;;;;;;;;;;5098870;28;20055;-81
2023/08/04 04:02:11;;;;;;;6.20;1.10;;;;;;;;;;5099012;28;20052;-80
2023/08/04 04:04:37;;;;;;;8.48;1.17;;;;;;;;;;5082664;28;20346;-81
2023/08/04 04:07:03;;;;;;;3.25;1.20;;;;;;;;;;5095536;28;20050;-81
2023/08/04 04:09:29;;;;;;;3.53;0.98;;;;;;;;;;5100250;28;20405;-83
2023/08/04 04:11:55;;;;;;;5.47;1.27;;;;;;;;;;5098124;28;20127;-79
2023/08/04 04:14:21;;;;;;;4.22;1.30;;;;;;;;;;5098679;28;20366;-79
2023/08/04 04:16:48;;;;;;;3.35;0.73;;;;;;;;;;5099230;28;20106;-81
2023/08/04 04:19:14;;;;;;;5.95;1.20;;;;;;;;;;5090936;28;20067;-81
2023/08/04 04:21:40;;;;;;;5.88;1.13;;;;;;;;;;5097992;28;20067;-84
2023/08/04 04:24:06;;;;;;;4.45;1.27;;;;;;;;;;5098295;28;20457;-84
2023/08/04 04:26:32;;;;;;;8.10;2.30;;;;;;;;;;5097858;28;20058;-83
2023/08/04 04:28:58;;;;;;;3.78;1.10;;;;;;;;;;5093131;28;20132;-80
2023/08/04 04:31:24;;;;;;;3.08;1.58;;;;;;;;;;5097567;28;20118;-81
2023/08/04 04:33:50;;;;;;;6.40;1.48;;;;;;;;;;5098493;28;20052;-83
2023/08/04 04:36:16;;;;;;;5.55;1.58;;;;;;;;;;5098352;28;20047;-80
2023/08/04 04:38:42;;;;;;;3.63;2.08;;;;;;;;;;5098189;28;20044;-82
2023/08/04 04:41:09;;;;;;;6.47;1.10;;;;;;;;;;5098193;28;20390;-80
2023/08/04 04:43:36;;;;;;;5.18;1.58;;;;;;;;;;5097314;28;20499;-83
2023/08/04 04:46:03;;;;;;;5.57;1.52;;;;;;;;;;5078255;28;20043;-81
2023/08/04 04:48:29;;;;;;;3.67;0.95;;;;;;;;;;5098376;28;20499;-83
2023/08/04 04:50:55;;;;;;;4.70;1.10;;;;;;;;;;5095993;28;20039;-81
2023/08/04 04:53:22;;;;;;;6.88;1.15;;;;;;;;;;5080957;28;20136;-81
2023/08/04 04:55:48;;;;;;;3.35;1.00;;;;;;;;;;5080909;28;20133;-84
2023/08/04 04:58:14;;;;;;;3.70;0.85;;;;;;;;;;5092432;28;20048;-83
2023/08/04 05:00:42;;;;;;;4.90;0.90;;;;;;;;;;5079340;28;20040;-83
2023/08/04 05:03:10;;;;;;;2.40;0.70;;;;;;;;;;5096409;28;20083;-81
2023/08/04 05:05:36;;;;;;;4.78;0.82;;;;;;;;;;5095121;28;20059;-83
2023/08/04 05:08:02;;;;;;;5.82;0.93;;;;;;;;;;5073642;28;20050;-82
2023/08/04 05:10:29;;;;;;;7.00;0.90;;;;;;;;;;5096182;28;20401;-83
2023/08/04 05:12:55;;;;;;;3.00;0.98;;;;;;;;;;5097333;28;20051;-84
2023/08/04 05:15:21;;;;;;;3.45;0.80;;;;;;;;;;5081491;28;20568;-88
2023/08/04 05:17:47;;;;;;;3.65;0.90;;;;;;;;;;5099082;28;20115;-85
2023/08/04 05:20:13;;;;;;;2.60;0.73;;;;;;;;;;5096617;28;20056;-83
2023/08/04 05:22:40;;;;;;;6.53;1.05;;;;;;;;;;5097971;28;20140;-81
2023/08/04 05:25:06;;;;;;;4.43;0.90;;;;;;;;;;5098093;28;20092;-84
2023/08/04 05:27:33;;;;;;;1.40;0.90;;;;;;;;;;5081216;28;20056;-84
2023/08/04 05:30:00;;;;;;;4.10;1.10;;;;;;;;;;5082901;28;20090;-83
2023/08/04 05:32:26;;;;;;;6.47;1.20;;;;;;;;;;5081208;28;20091;-85
2023/08/04 05:34:53;;;;;;;1.85;0.80;;;;;;;;;;5099067;28;20056;-85
2023/08/04 05:37:19;;;;;;;4.03;1.10;;;;;;;;;;5082744;28;20055;-85
2023/08/04 05:39:45;;;;;;;6.75;1.30;;;;;;;;;;5087919;28;20055;-85
2023/08/04 05:42:11;;;;;;;3.92;1.65;;;;;;;;;;5087870;28;20404;-86
2023/08/04 05:44:37;;;;;;;7.35;1.25;;;;;;;;;;5087960;28;20066;-84
2023/08/04 05:47:04;;;;;;;3.88;1.50;;;;;;;;;;5087778;28;20112;-84
2023/08/04 05:49:32;;;;;;;4.93;1.40;;;;;;;;;;5069771;28;20047;-84
2023/08/04 05:51:59;;;;;;;7.25;1.40;;;;;;;;;;5096620;28;20058;-84
2023/08/04 05:54:25;;;;;;;4.07;1.58;;;;;;;;;;5100651;28;20047;-84
2023/08/04 05:56:51;;;;;;;2.80;1.20;;;;;;;;;;5082232;28;20385;-82
2023/08/04 05:59:17;;;;;;;7.93;1.70;;;;;;;;;;5083503;28;20059;-85
2023/08/04 06:01:44;;;;;;;4.45;1.67;;;;;;;;;;5083227;28;20055;-82
2023/08/04 06:04:10;;;;;;;3.95;1.17;;;;;;;;;;5083034;28;20039;-82
2023/08/04 06:06:36;;;;;;;4.38;1.27;;;;;;;;;;5080841;28;20051;-82
2023/08/04 06:09:03;;;;;;;5.30;1.88;;;;;;;;;;5100600;28;20046;-81
2023/08/04 06:11:29;;;;;;;2.95;1.40;;;;;;;;;;5100013;28;20046;-81
2023/08/04 06:13:55;;;;;;;7.88;2.10;;;;;;;;;;5100845;28;20051;-82
2023/08/04 06:16:21;;;;;;;6.88;2.10;;;;;;;;;;5083951;28;20054;-81
2023/08/04 06:18:48;;;;;;;3.50;1.67;;;;;;;;;;5096722;28;20771;-81
2023/08/04 06:21:14;;;;;;;3.30;1.58;;;;;;;;;;5082864;28;20130;-81
2023/08/04 06:23:45;;;;;;;5.68;2.08;;;;;;;;;;5099908;28;20415;-81
2023/08/04 06:26:12;;;;;;;8.38;2.63;;;;;;;;;;5082381;28;20104;-80
2023/08/04 06:28:38;;;;;;;4.20;1.90;;;;;;;;;;5099651;28;20812;-81
2023/08/04 06:31:05;;;;;;;5.93;2.10;;;;;;;;;;5095074;28;20052;-80
2023/08/04 06:33:31;;;;;;;6.80;2.10;;;;;;;;;;5073768;28;20627;-80
2023/08/04 06:35:57;;;;;;;5.03;2.33;;;;;;;;;;5080736;28;20040;-80
2023/08/04 06:38:23;;;;;;;3.95;1.80;;;;;;;;;;5099393;28;20039;-80
2023/08/04 06:40:49;;;;;;;7.93;1.60;;;;;;;;;;5082397;28;20181;-79
2023/08/04 06:43:16;;;;;;;5.53;1.52;;;;;;;;;;5099501;28;20058;-79
2023/08/04 06:45:42;;;;;;;8.65;2.33;;;;;;;;;;5097863;28;20040;-81
2023/08/04 06:48:08;;;;;;;3.72;1.90;;;;;;;;;;5088863;28;20097;-79
2023/08/04 06:50:34;;;;;;;2.78;1.15;;;;;;;;;;5098276;28;20472;-80
2023/08/04 06:53:00;;;;;;;2.97;1.10;;;;;;;;;;5095327;28;20571;-79
2023/08/04 06:55:26;;;;;;;6.18;1.13;;;;;;;;;;5089404;28;20035;-78
2023/08/04 06:57:52;;;;;;;4.07;1.15;;;;;;;;;;5095172;28;20039;-78
2023/08/04 07:00:19;;;;;;;3.33;1.27;;;;;;;;;;5093941;28;20512;-80
2023/08/04 07:02:48;;;;;;;6.40;1.45;;;;;;;;;;5092191;28;20048;-78
2023/08/04 07:05:15;;;;;;;3.45;1.00;;;;;;;;;;5097223;28;20070;-78
2023/08/04 07:07:41;;;;;;;8.65;1.00;;;;;;;;;;5089202;28;20047;-77
2023/08/04 07:10:08;;;;;;;6.18;1.02;;;;;;;;;;5111374;28;20039;-77
2023/08/04 07:12:34;;;;;;;4.30;1.15;;;;;;;;;;5092398;28;20044;-78
2023/08/04 07:15:01;;;;;;;4.68;1.00;;;;;;;;;;5105990;28;20046;-78
2023/08/04 07:17:27;;;;;;;4.10;0.85;;;;;;;;;;5104927;28;20043;-77
2023/08/04 07:19:53;;;;;;;3.72;0.85;;;;;;;;;;5102949;28;20051;-77
2023/08/04 07:24:26;;;;;;;3.35;0.90;;;17.60;99.90;;;;;;5118521;27;20119;-75
2023/08/04 07:26:52;;;;;;;3.65;1.10;;;17.80;99.90;;;;;;5100937;28;20044;-75
2023/08/04 07:29:17;;;;;;;4.15;1.15;;;17.90;99.90;;;;;;5096159;28;20085;-76
2023/08/04 07:31:43;;;;;;;5.95;1.38;;;18.30;99.90;;;;;;5100334;28;20040;-77
2023/08/04 07:34:09;;;;;;;3.53;0.90;;;18.70;99.90;;;;;;5095673;28;20052;-76
2023/08/04 07:36:35;;;;;;;6.90;1.02;;;19.50;99.90;;;;;;5095675;28;20064;-77
2023/08/04 07:39:00;;;;;;;4.55;1.27;;;19.40;99.90;;;;;;5101541;28;20611;-75
2023/08/04 07:41:26;;;;;;;2.80;0.82;;;19.60;99.90;;;;;;5106590;28;20058;-77
2023/08/04 07:43:52;;;;;;;2.10;0.80;;;19.60;99.90;;;;;;5083016;28;20720;-77
2023/08/04 07:46:22;;;;;;;3.47;0.80;;;19.60;99.90;;;;;;5089489;28;20105;-79
2023/08/04 07:48:50;;;;;;;2.00;0.55;;;19.70;99.90;;;;;;5096755;28;20156;-81
2023/08/04 07:51:16;;;;;;;3.55;0.85;;;19.80;99.90;;;;;;5094145;28;20485;-81
2023/08/04 07:53:42;;;;;;;2.58;0.82;;;20.00;99.90;;;;;;5096057;28;20048;-81
2023/08/04 07:56:08;;;;;;;3.17;1.05;;;17.80;99.90;;;;;;5098044;27;20458;-81
2023/08/04 07:58:33;;;;;;;4.03;0.82;;;20.70;99.90;;;;;;5097479;28;20096;-80
2023/08/04 08:00:59;;;;;;;3.70;0.82;;;20.70;99.90;;;;;;5087250;28;20055;-79
2023/08/04 08:03:25;;;;;;;3.67;1.15;;;20.80;99.90;;;;;;5106571;28;20042;-82
2023/08/04 08:05:51;;;;;;;4.22;0.90;;;;;;;;;;5108301;28;20127;-83
2023/08/04 08:08:18;;;;;;;4.22;0.80;;;;;;;;;;5099350;28;20132;-82
2023/08/04 08:10:45;;;;;;;4.15;1.27;;;;;;;;;;5104920;28;20085;-81
2023/08/04 08:13:11;;;;;;;5.65;1.05;;;;;;;;;;5097390;28;20063;-83
2023/08/04 08:15:37;;;;;;;2.97;0.90;;;;;;;;;;5096747;28;20360;-84
2023/08/04 08:18:03;;;;;;;4.03;0.90;;;;;;;;;;5083741;28;20048;-82
2023/08/04 08:20:29;;;;;;;5.93;1.08;;;;;;;;;;5095047;28;20043;-80
2023/08/04 08:22:56;;;;;;;4.50;1.10;;;;;;;;;;5097605;28;20139;-82
2023/08/04 08:25:23;;;;;;;3.97;0.80;;;;;;;;;;5079817;28;20054;-81
2023/08/04 08:27:49;;;;;;;4.40;0.70;;;;;;;;;;5081628;28;20052;-82
2023/08/04 08:30:15;;;;;;;3.70;0.73;;;;;;;;;;5094376;28;20052;-84
2023/08/04 08:32:42;;;;;;;3.45;0.63;;;;;;;;;;5100884;28;20055;-80
2023/08/04 08:35:11;;;;;;;4.03;0.80;;;;;;;;;;5092799;27;20298;-83
2023/08/04 08:37:37;;;;;;;4.80;0.70;;;;;;;;;;5062361;28;20047;-82
2023/08/04 08:40:03;;;;;;;1.98;0.50;;;;;;;;;;5075110;28;20454;-81
2023/08/04 08:42:30;;;;;;;5.00;0.75;;;;;;;;;;5065913;28;20135;-83
2023/08/04 08:44:56;;;;;;;8.40;2.72;;;;;;;;;;5085066;28;20724;-80
2023/08/04 08:47:24;;;;;;;3.08;0.60;;;21.70;99.90;;;;;;5085777;28;20526;-84
2023/08/04 08:49:51;;;;;;;1.75;0.45;;;;;;;;;;5083508;28;20485;-83
2023/08/04 08:52:22;;;;;;;3.70;0.85;;;21.60;99.90;;;;;;5066593;28;20500;-78
2023/08/04 08:54:49;;;;;;;3.45;0.70;;;21.40;99.90;;;;;;5081992;28;20086;-84
2023/08/04 08:57:15;;;;;;;2.17;0.50;;;;;;;;;;5071615;28;20341;-83
2023/08/04 08:59:42;;;;;;;2.95;0.65;;;;;;;;;;5083210;28;20056;-81
2023/08/04 09:02:09;;;;;;;4.35;0.95;;;20.70;99.90;;;;;;5084791;28;20129;-85
2023/08/04 09:04:37;;;;;;;5.28;0.75;;;;;;;;;;5079564;28;20059;-82
2023/08/04 09:07:03;;;;;;;3.13;0.80;;;;;;;;;;5080370;28;20052;-81
2023/08/04 09:09:29;;;;;;;4.50;0.70;;;;;;;;;;5080616;28;20059;-82
2023/08/04 09:11:56;;;;;;;4.93;0.98;;;;;;;;;;5085802;28;20055;-82
2023/08/04 09:14:22;;;;;;;2.72;0.47;;;;;;;;;;5067791;28;20047;-85
2023/08/04 09:16:49;;;;;;;2.50;0.40;;;;;;;;;;5096328;28;20040;-86
2023/08/04 09:19:15;;;;;;;4.53;0.50;;;;;;;;;;5090233;28;20058;-82
2023/08/04 09:21:42;;;;;;;1.88;0.40;;;;;;;;;;5082567;28;20048;-83
2023/08/04 09:24:10;;;;;;;5.30;0.52;;;19.50;99.90;;;;;;5081179;28;20056;-85
2023/08/04 09:26:44;;;;;;;5.95;0.65;;;;;;;;;;5081682;28;20757;-82
2023/08/04 09:29:10;;;;;;;6.50;0.80;;;;;;;;;;5086549;28;20104;-85
2023/08/04 09:31:41;;;;;;;5.28;0.55;;;22.10;99.90;;;;;;5081630;28;20112;-84
2023/08/04 09:34:09;;;;;;;2.22;0.40;;;23.20;99.90;;;;;;5065061;28;20044;-84
2023/08/04 09:36:56;;;;;;;5.45;0.40;;;25.10;99.90;;;;;;5067391;28;20044;-83
2023/08/04 09:39:22;;;;;;;3.38;0.60;;;;;;;;;;5063941;28;20406;-83
2023/08/04 09:41:48;;;;;;;3.78;0.40;;;;;;;;;;5077173;28;20040;-81
2023/08/04 09:44:15;;;;;;;2.70;0.30;;;;;;;;;;5082152;28;20051;-81
2023/08/04 09:46:52;;;;;;;7.70;0.50;;;24.90;99.90;;;;;;5071319;28;20455;-85
2023/08/04 09:49:19;;;;;;;3.80;0.30;;;23.80;99.90;;;;;;5066039;28;20121;-86
2023/08/04 09:51:46;;;;;;;4.10;0.20;;;;;;;;;;5082550;28;20036;-83
2023/08/04 09:54:13;;;;;;;3.78;0.20;;;;;;;;;;5080804;28;20050;-84
2023/08/04 09:56:39;;;;;;;4.72;0.32;;;;;;;;;;5081689;28;20040;-84
2023/08/04 09:59:06;;;;;;;2.58;0.35;;;;;;;;;;5083347;28;20045;-86
2023/08/04 10:01:32;;;;;;;3.58;0.28;;;;;;;;;;5081483;28;20043;-87
2023/08/04 10:03:58;;;;;;;2.13;0.20;;;;;;;;;;5080738;28;20154;-86
2023/08/04 10:06:25;;;;;;;0.70;0.20;;;;;;;;;;5075118;28;20040;-86
2023/08/04 10:08:53;;;;;;;2.03;0.20;;;21.00;99.90;;;;;;5082030;28;20095;-89
2023/08/04 10:11:23;;;;;;;1.42;0.20;;;;;;;;;;5066046;28;20486;-86
2023/08/04 10:13:52;;;;;;;1.15;0.15;;;20.90;99.90;;;;;;5083428;28;20467;-86
2023/08/04 10:16:21;;;;;;;1.42;0.20;;;20.90;99.90;;;;;;5083422;28;20524;-83
2023/08/04 10:18:54;;;;;;;1.27;0.20;;;21.00;99.90;;;;;;5065986;28;20264;-83
2023/08/04 10:21:29;;;;;;;1.65;0.50;;;21.10;99.90;;;;;;5080053;28;20087;-83
2023/08/04 10:23:57;;;;;;;2.53;0.35;;;21.60;99.90;;;;;;5073687;28;20595;-80
2023/08/04 10:26:23;;;;;;;1.70;0.30;;;;;;;;;;5085774;28;20056;-81
2023/08/04 10:29:04;;;;;;;3.97;0.40;;;22.20;99.90;;;;;;5084905;28;20043;-83
2023/08/04 10:31:42;;;;;;;4.15;0.47;;;23.90;99.90;;;;;;5086555;28;20587;-80
2023/08/04 10:34:36;;;;;;;2.50;0.45;;;24.10;99.90;;;;;;5080678;28;20071;-80
2023/08/04 10:37:09;;;;;;;3.05;0.52;;;24.20;99.90;;;;;;5079265;28;20071;-84
2023/08/04 10:39:35;;;;;;;4.30;0.63;;;23.00;99.90;;;;;;5079819;28;20139;-86
2023/08/04 10:42:05;;;;;;;3.72;0.68;;;25.00;99.90;;;;;;5076761;28;20108;-83
2023/08/04 10:44:47;;;;;;;3.72;0.50;;;24.80;99.90;;;;;;5061778;28;20052;-82
2023/08/04 10:47:12;;;;;;;2.38;0.40;;;24.00;99.90;;;;;;5079992;28;20047;-81
2023/08/04 10:49:39;;;;;;;3.95;0.90;;;;;;;;;;5080256;28;20055;-82
2023/08/04 10:52:05;;;;;;;4.15;0.70;;;;;;;;;;5052995;28;20051;-83
2023/08/04 10:54:31;;;;;;;5.60;0.63;;;;;;;;;;5079603;28;20157;-85
2023/08/04 10:56:57;;;;;;;6.35;1.10;;;23.00;99.90;;;;;;5071725;28;20047;-86
2023/08/04 10:59:23;;;;;;;3.42;0.93;;;;;;;;;;5084228;28;20048;-82
2023/08/04 11:01:49;;;;;;;5.28;0.85;;;;;;;;;;5061928;28;20044;-84
2023/08/04 11:04:16;;;;;;;5.75;0.93;;;;;;;;;;5085627;28;20051;-83
2023/08/04 11:06:42;;;;;;;7.05;1.85;;;;;;;;;;5062129;28;20059;-83
2023/08/04 11:09:10;;;;;;;5.07;1.23;;;22.20;99.90;;;;;;5079386;28;20608;-79
2023/08/04 11:11:37;;;;;;;4.57;0.60;;;;;;;;;;5078931;28;20047;-83
2023/08/04 11:14:07;;;;;;;6.68;0.85;;;21.80;99.90;;;;;;5075243;28;20075;-83
2023/08/04 11:16:35;;;;;;;3.53;0.60;;;;;;;;;;5083722;28;20052;-83
2023/08/04 11:19:07;;;;;;;4.85;1.10;;;21.40;99.90;;;;;;5108454;27;20044;-82
2023/08/04 11:21:34;;;;;;;5.40;0.60;;;;;;;;;;5082986;28;20055;-83
2023/08/04 11:24:00;;;;;;;6.97;0.73;;;;;;;;;;5076512;28;20109;-83
2023/08/04 11:26:30;;;;;;;3.28;0.90;;;21.30;99.90;;;;;;5079418;28;20075;-83
2023/08/04 11:28:57;;;;;;;8.73;0.50;;;;;;;;;;5080784;28;20051;-82
2023/08/04 11:31:23;;;;;;;3.00;0.30;;;;;;;;;;5085161;28;20479;-82
2023/08/04 11:33:51;;;;;;;3.63;0.85;;;21.00;99.90;;;;;;5084067;28;20062;-80
2023/08/04 11:36:17;;;;;;;4.90;0.40;;;;;;;;;;5083499;28;20109;-84
2023/08/04 11:38:44;;;;;;;4.47;0.70;;;;;;;;;;5076977;28;20047;-80
2023/08/04 11:41:12;;;;;;;2.35;0.47;;;21.10;99.90;;;;;;5078672;28;20136;-83
2023/08/04 11:43:42;;;;;;;1.63;0.55;;;;;;;;;;5062401;28;20131;-84
2023/08/04 11:46:14;;;;;;;2.30;0.88;;;;;;;;;;5083292;28;20066;-84
2023/08/04 11:48:40;;;;;;;2.78;0.55;;;;;;;;;;5059668;28;20036;-84
2023/08/04 11:51:07;;;;;;;2.40;0.88;;;21.60;99.90;;;;;;5074156;28;20047;-85
2023/08/04 11:53:33;;;;;;;3.25;0.40;;;;;;;;;;5061349;28;20055;-83
2023/08/04 11:56:04;;;;;;;7.15;1.35;;;21.60;99.90;;;;;;5078176;28;20130;-83
2023/08/04 11:58:35;;;;;;;4.25;0.52;;;21.50;99.90;;;;;;5075784;28;20058;-86
2023/08/04 12:01:03;;;;;;;2.10;0.35;;;21.30;99.90;;;;;;5082319;28;20036;-84
2023/08/04 12:03:48;;;;;;;2.10;0.60;;;21.20;99.90;;;;;;5080379;28;20262;-84
2023/08/04 12:06:17;;;;;;;3.70;0.40;;;21.30;99.90;;;;;;5079721;28;20059;-83
2023/08/04 12:08:52;;;;;;;3.30;0.40;;;21.30;99.90;;;;;;5051112;28;20052;-82
2023/08/04 12:11:19;;;;;;;1.10;0.30;;;21.50;99.90;;;;;;5113742;27;20067;-85
2023/08/04 12:13:45;;;;;;;3.95;0.57;;;;;;;;;;5080299;28;20079;-87
2023/08/04 12:16:13;;;;;;;3.05;0.40;;;21.50;99.90;;;;;;5066397;28;20100;-85
2023/08/04 12:18:39;;;;;;;2.90;0.68;;;;;;;;;;5077018;28;20401;-85
2023/08/04 12:21:15;;;;;;;3.17;0.30;;;;;;;;;;5084656;28;20044;-87
2023/08/04 12:23:48;;;;;;;6.13;0.40;;;21.80;99.90;;;;;;5066542;28;20101;-84
2023/08/04 12:26:15;;;;;;;3.65;0.40;;;;;;;;;;5084985;28;20109;-87
2023/08/04 12:28:41;;;;;;;5.57;0.50;;;;;;;;;;5086873;28;20056;-79
2023/08/04 12:31:07;;;;;;;5.35;0.65;;;;;;;;;;5072753;28;20088;-84
2023/08/04 12:33:33;;;;;;;2.58;0.40;;;;;;;;;;5082971;28;20052;-82
2023/08/04 12:36:00;;;;;;;6.32;0.50;;;;;;;;;;5083209;28;20094;-88
2023/08/04 12:38:26;;;;;;;2.90;0.40;;;;;;;;;;5065139;28;20048;-85
2023/08/04 12:40:52;;;;;;;1.55;0.38;;;;;;;;;;5081470;28;20553;-83
2023/08/04 12:43:18;;;;;;;3.25;0.40;;;;;;;;;;5079281;28;20058;-86
2023/08/04 12:45:44;;;;;;;4.32;0.40;;;;;;;;;;5082408;28;20048;-87
2023/08/04 12:48:10;;;;;;;5.05;0.52;;;;;;;;;;5064571;28;20048;-84
2023/08/04 12:50:37;;;;;;;3.47;0.30;;;;;;;;;;5083418;28;20071;-81
2023/08/04 12:53:03;;;;;;;5.57;0.82;;;;;;;;;;5087207;28;20051;-85
2023/08/04 12:55:29;;;;;;;4.85;0.40;;;;;;;;;;5065604;28;20121;-86
2023/08/04 12:57:55;;;;;;;3.33;0.40;;;;;;;;;;5066297;28;20058;-86
2023/08/04 13:00:21;;;;;;;2.25;0.60;;;;;;;;;;5091917;28;20051;-84
2023/08/04 13:02:47;;;;;;;2.88;0.45;;;;;;;;;;5084427;28;20044;-85
2023/08/04 13:05:13;;;;;;;3.72;0.50;;;;;;;;;;5064962;28;20036;-81
2023/08/04 13:07:40;;;;;;;4.05;0.50;;;20.80;99.90;;;;;;5065626;28;20059;-85
2023/08/04 13:10:07;;;;;;;2.47;0.50;;;;;;;;;;5080969;28;20048;-81
2023/08/04 13:12:33;;;;;;;2.35;0.50;;;;;;;;;;5083471;28;20056;-86
2023/08/04 13:14:59;;;;;;;5.68;0.98;;;;;;;;;;5085803;28;20674;-84
2023/08/04 13:17:25;;;;;;;4.50;0.50;;;;;;;;;;5083776;28;20525;-83
2023/08/04 13:19:51;;;;;;;3.65;0.75;;;;;;;;;;5086940;28;20054;-85
2023/08/04 13:22:18;;;;;;;5.22;0.73;;;;;;;;;;5081271;28;20052;-84
2023/08/04 13:24:44;;;;;;;3.10;0.57;;;;;;;;;;5085874;28;20144;-87
2023/08/04 13:27:10;;;;;;;5.97;0.88;;;;;;;;;;5082687;28;20055;-87
2023/08/04 13:29:37;;;;;;;5.68;0.80;;;;;;;;;;5080329;28;20067;-84
2023/08/04 13:32:03;;;;;;;2.72;0.50;;;21.60;99.90;;;;;;5079478;28;20050;-87
2023/08/04 13:34:30;;;;;;;3.85;0.80;;;;;;;;;;5110127;27;20055;-82
2023/08/04 13:36:56;;;;;;;2.05;0.40;;;;;;;;;;5064185;28;20055;-81
2023/08/04 13:39:22;;;;;;;3.80;0.40;;;;;;;;;;5078341;28;20485;-88
2023/08/04 13:41:48;;;;;;;2.85;0.60;;;;;;;;;;5063269;28;20059;-84
2023/08/04 13:44:14;;;;;;;2.88;0.57;;;;;;;;;;5079839;28;20078;-85
2023/08/04 13:46:40;;;;;;;3.00;0.50;;;;;;;;;;5080411;28;20048;-84
2023/08/04 13:49:06;;;;;;;5.60;1.65;;;;;;;;;;5076512;28;20044;-82
2023/08/04 13:51:33;;;;;;;2.97;0.60;;;;;;;;;;5079416;28;20044;-83
2023/08/04 13:53:59;;;;;;;4.03;0.60;;;;;;;;;;5083809;28;20735;-83
2023/08/04 13:56:25;;;;;;;1.92;0.30;;;;;;;;;;5084899;28;20419;-83
2023/08/04 13:58:51;;;;;;;2.67;0.40;;;;;;;;;;5084261;28;20101;-84
2023/08/04 14:01:18;;;;;;;6.20;0.50;;;;;;;;;;5079122;28;20051;-84
2023/08/04 14:03:44;;;;;;;2.22;0.60;;;;;;;;;;5069761;28;20485;-80
2023/08/04 14:06:10;;;;;;;3.53;0.70;;;;;;;;;;5066234;28;20079;-82
2023/08/04 14:08:36;;;;;;;3.85;0.70;;;;;;;;;;5080597;28;20073;-85
2023/08/04 14:11:05;;;;;;;5.85;0.40;;;;;;;;;;5080019;28;20097;-80
2023/08/04 14:13:32;;;;;;;8.23;2.55;;;;;;;;;;5069671;28;20480;-79
2023/08/04 14:16:11;;;;;;;3.40;0.43;;;21.20;99.90;;;;;;5063573;28;20036;-83
2023/08/04 14:18:37;;;;;;;4.25;1.02;;;;;;;;;;5092775;28;20036;-79